Time;durP1;ratioP1;P1;durP2;ratioP2;P2;SDS_P1;SDS_P2;PMS_P1;PMS_P2;Temp;Humidity;BMP_temperature;BMP_pressure;BME280_temperature;BME280_humidity;BME280_pressure;Samples;Min_cycle;Max_cycle;Signal;HPM_P1;HPM_P2
2022/07/09 00:02:10;;;;;;;7.65;2.30;;;;;;;18.46;54.84;100354.28;7738572;32;39978;-78
2022/07/09 00:06:26;;;;;;;4.82;2.65;;;;;;;18.26;55.97;100351.97;7738378;32;38111;-77
2022/07/09 00:10:42;;;;;;;4.65;2.72;;;;;;;18.47;54.63;100357.84;7758477;32;36909;-76
2022/07/09 00:14:59;;;;;;;5.70;2.70;;;;;;;18.69;53.98;100346.81;7765536;32;39180;-76
2022/07/09 00:19:15;;;;;;;5.00;2.30;;;;;;;17.94;56.15;100354.56;7765596;32;39972;-77
2022/07/09 00:23:31;;;;;;;4.45;2.22;;;;;;;18.15;55.92;100356.91;7765104;32;38646;-77
2022/07/09 00:27:47;;;;;;;3.80;2.42;;;;;;;18.13;55.35;100354.44;7748630;32;36687;-77
2022/07/09 00:32:03;;;;;;;6.28;2.62;;;;;;;18.18;55.40;100353.53;7738341;32;38917;-77
2022/07/09 00:36:19;;;;;;;4.45;2.17;;;;;;;18.27;54.62;100357.19;7749352;32;39893;-77
2022/07/09 00:40:36;;;;;;;5.00;2.42;;;;;;;18.48;53.95;100359.50;7738004;32;37920;-77
2022/07/09 00:44:52;;;;;;;5.47;2.50;;;;;;;18.39;53.97;100351.94;7738026;32;37015;-77
2022/07/09 00:49:08;;;;;;;5.10;2.90;;;;;;;18.42;54.04;100347.75;7736926;32;39363;-77
2022/07/09 00:53:24;;;;;;;3.10;1.83;;;;;;;18.34;53.65;100354.81;7737946;32;39911;-76
2022/07/09 00:57:41;;;;;;;4.45;2.10;;;;;;;18.38;53.24;100343.97;7737875;32;38050;-77
2022/07/09 01:01:59;;;;;;;4.30;2.17;;;;;;;18.29;53.44;100343.09;7750828;32;37704;-78
2022/07/09 01:06:15;;;;;;;3.90;2.28;;;;;;;18.09;53.88;100347.94;7743865;32;39376;-77
2022/07/09 01:10:33;;;;;;;5.12;2.12;;;;;;;17.89;54.38;100354.69;7737672;32;39857;-77
2022/07/09 01:14:49;;;;;;;4.07;2.42;;;;;;;18.05;53.58;100346.09;7737234;32;37821;-76
2022/07/09 01:19:06;;;;;;;6.70;2.22;;;;;;;18.02;53.85;100342.81;7737453;32;37474;-77
2022/07/09 01:23:22;;;;;;;6.65;2.03;;;;;;;18.04;53.41;100344.44;7737254;32;39286;-75
2022/07/09 01:27:38;;;;;;;2.85;1.92;;;;;;;17.87;54.44;100350.56;7754066;32;40114;-76
2022/07/09 01:31:54;;;;;;;3.50;1.95;;;;;;;17.72;54.33;100337.91;7764080;32;38052;-74
2022/07/09 01:36:10;;;;;;;4.07;2.08;;;;;;;17.92;53.84;100332.00;7746960;32;37766;-75
2022/07/09 01:40:27;;;;;;;6.68;2.35;;;;;;;17.99;54.07;100321.38;7737032;32;39325;-76
2022/07/09 01:44:43;;;;;;;3.83;2.15;;;;;;;18.06;53.43;100325.63;7754900;32;41238;-77
2022/07/09 01:48:59;;;;;;;6.95;2.58;;;;;;;17.74;54.31;100313.59;7763837;32;37901;-76
2022/07/09 01:53:15;;;;;;;5.37;2.33;;;;;;;17.73;54.21;100311.94;7762165;32;37044;-74
2022/07/09 01:57:32;;;;;;;6.28;2.33;;;;;;;17.75;54.13;100316.03;7736482;32;40069;-77
2022/07/09 02:01:48;;;;;;;4.55;2.37;;;;;;;17.54;54.40;100318.41;7739472;32;40811;-76
2022/07/09 02:06:04;;;;;;;7.15;2.10;;;;;;;17.85;53.73;100304.00;7739949;32;38123;-77
2022/07/09 02:10:20;;;;;;;4.85;2.00;;;;;;;17.54;54.35;100312.88;7753693;32;36943;-76
2022/07/09 02:14:36;;;;;;;7.22;2.62;;;;;;;17.35;54.72;100309.38;7766911;32;39227;-76
2022/07/09 02:18:52;;;;;;;4.72;2.30;;;;;;;16.96;56.03;100305.97;7766749;32;39912;-76
2022/07/09 02:23:08;;;;;;;6.90;2.62;;;;;;;17.36;55.28;100308.28;7766479;32;37940;-76
2022/07/09 02:27:24;;;;;;;6.12;2.62;;;;;;;17.40;55.17;100310.12;7765348;32;37115;-76
2022/07/09 02:31:40;;;;;;;9.00;2.60;;;;;;;17.40;55.06;100303.78;7766732;32;39211;-75
2022/07/09 02:35:56;;;;;;;2.80;2.03;;;;;;;17.53;54.60;100311.25;7766615;32;39894;-76
2022/07/09 02:40:14;;;;;;;6.55;2.40;;;;;;;17.64;54.07;100303.56;7742097;32;38035;-77
2022/07/09 02:44:30;;;;;;;6.30;2.58;;;;;;;17.62;54.36;100312.16;7739542;32;36898;-75
2022/07/09 02:48:46;;;;;;;3.90;2.20;;;;;;;17.35;54.83;100306.62;7764800;32;39911;-77
2022/07/09 02:53:02;;;;;;;6.22;2.25;;;;;;;17.26;55.19;100309.28;7766414;32;40738;-76
2022/07/09 02:57:18;;;;;;;5.20;2.62;;;;;;;17.40;54.80;100310.12;7766289;32;37858;-77
2022/07/09 03:01:34;;;;;;;6.45;3.12;;;;;;;17.44;54.49;100310.34;7764752;32;36890;-75
2022/07/09 03:05:51;;;;;;;12.30;2.90;;;;;;;17.61;54.10;100307.78;7766245;32;39999;-77
2022/07/09 03:10:07;;;;;;;5.87;2.70;;;;;;;17.30;54.88;100292.94;7765320;32;40723;-77
2022/07/09 03:14:23;;;;;;;4.60;2.60;;;;;;;16.92;56.04;100299.44;7738993;32;37663;-76
2022/07/09 03:18:39;;;;;;;4.65;2.70;;;;;;;17.24;55.40;100301.31;7739155;32;36603;-77
2022/07/09 03:22:55;;;;;;;5.25;2.85;;;;;;;17.33;54.96;100295.09;7738975;32;39995;-77
2022/07/09 03:27:11;;;;;;;10.60;2.65;;;;;;;17.62;54.06;100306.62;7738931;32;40985;-77
2022/07/09 03:31:27;;;;;;;5.35;2.30;;;;;;;17.41;54.30;100310.94;7745905;32;37857;-77
2022/07/09 03:35:44;;;;;;;3.70;2.53;;;;;;;17.55;54.22;100311.75;7765882;32;37832;-77
2022/07/09 03:40:00;;;;;;;7.37;2.62;;;;;;;17.54;53.99;100310.12;7765932;32;39272;-77
2022/07/09 03:44:16;;;;;;;4.93;2.80;;;;;;;17.54;54.25;100315.66;7765783;32;39952;-77
2022/07/09 03:48:32;;;;;;;4.95;2.58;;;;;;;17.60;53.97;100313.59;7765770;32;38188;-78
2022/07/09 03:52:49;;;;;;;6.40;2.60;;;;;;;17.64;53.56;100312.69;7765901;32;37589;-78
2022/07/09 03:57:05;;;;;;;7.35;2.58;;;;;;;17.52;54.17;100322.56;7765760;32;39869;-77
2022/07/09 04:01:21;;;;;;;5.93;2.60;;;;;;;17.55;54.31;100333.81;7751026;32;40592;-77
2022/07/09 04:05:37;;;;;;;7.90;2.92;;;;;;;17.58;54.64;100322.16;7738488;32;37670;-76
2022/07/09 04:09:54;;;;;;;4.65;2.78;;;;;;;17.57;55.21;100331.56;7748104;32;37666;-77
2022/07/09 04:14:10;;;;;;;5.07;2.42;;;;;;;17.63;54.41;100335.03;7737340;32;39987;-76
2022/07/09 04:18:26;;;;;;;8.48;3.10;;;;;;;17.79;53.84;100330.03;7737176;32;40880;-75
2022/07/09 04:22:42;;;;;;;8.23;3.20;;;;;;;17.39;55.25;100341.56;7738029;32;37973;-76
2022/07/09 04:26:58;;;;;;;4.62;2.50;;;;;;;17.35;55.55;100345.22;7738297;32;36614;-76
2022/07/09 04:31:15;;;;;;;11.80;2.85;;;;;;;17.52;55.24;100336.34;7738375;32;37939;-75
2022/07/09 04:35:32;;;;;;;3.87;2.97;;;;;;;17.39;55.63;100341.56;7738280;32;40913;-77
2022/07/09 04:39:48;;;;;;;6.75;3.00;;;;;;;17.39;55.28;100330.53;7752548;32;38086;-76
2022/07/09 04:44:04;;;;;;;7.15;2.80;;;;;;;17.40;55.68;100325.81;7759564;32;37230;-74
2022/07/09 04:48:20;;;;;;;6.43;2.90;;;;;;;17.26;56.37;100331.31;7765270;32;39229;-76
2022/07/09 04:52:36;;;;;;;4.68;2.92;;;;;;;16.82;57.48;100330.66;7764957;32;40842;-76
2022/07/09 04:56:52;;;;;;;3.97;2.62;;;;;;;17.23;56.45;100329.16;7764865;32;38036;-78
2022/07/09 05:01:08;;;;;;;8.25;2.95;;;;;;;16.81;57.67;100337.28;7759047;32;37005;-78
2022/07/09 05:05:25;;;;;;;8.98;2.80;;;;;;;17.05;56.20;100328.13;7750247;32;39368;-77
2022/07/09 05:09:41;;;;;;;5.12;2.90;;;;;;;17.48;55.00;100336.16;7764691;32;39605;-77
2022/07/09 05:13:57;;;;;;;6.43;3.12;;;;;;;17.92;54.25;100329.25;7762199;32;37653;-75
2022/07/09 05:18:13;;;;;;;6.55;2.80;;;;;;;17.68;55.04;100337.69;7764497;32;36653;-76
2022/07/09 05:22:33;;;;;;;6.93;3.03;;;;;;;18.05;53.90;100335.06;7764266;32;39199;-71
2022/07/09 05:26:49;;;;;;;5.53;2.87;;;;;;;17.61;54.78;100340.88;7754857;32;39637;-70
2022/07/09 05:31:05;;;;;;;6.75;2.92;;;;;;;18.00;54.57;100334.00;7744407;32;38798;-75
2022/07/09 05:35:42;;;;;;;5.85;2.85;;;;;;;17.78;54.48;100343.00;7761839;32;37273;-74
2022/07/09 05:39:58;;;;;;;9.10;3.72;;;;;;;18.19;53.67;100338.59;7762879;32;39360;-74
2022/07/09 05:44:14;;;;;;;7.43;3.25;;;;;;;18.09;53.49;100336.06;7752609;32;40975;-73
2022/07/09 05:48:30;;;;;;;5.93;3.00;;;;;;;18.11;54.87;100344.84;7736791;32;37857;-75
2022/07/09 05:52:47;;;;;;;5.95;3.10;;;;;;;18.69;53.19;100335.78;7736901;32;37748;-74
2022/07/09 05:57:04;;;;;;;8.20;3.30;;;;;;;18.40;52.70;100341.72;7736775;32;39821;-74
2022/07/09 06:01:20;;;;;;;8.95;2.83;;;;;;;17.97;55.84;100339.34;7746812;32;40490;-76
2022/07/09 06:05:41;;;;;;;6.93;3.15;;;;;;;18.71;53.69;100336.31;7745451;32;38032;-75
2022/07/09 06:09:58;;;;;;;4.93;2.87;;;;;;;19.08;52.75;100334.31;7736386;32;36977;-75
2022/07/09 06:14:14;;;;;;;6.80;3.12;;;;;;;19.30;51.14;100327.94;7752893;32;38280;-75
2022/07/09 06:18:30;;;;;;;5.93;2.60;;;;;;;19.22;51.39;100336.97;7762439;32;39890;-74
2022/07/09 06:22:47;;;;;;;5.03;2.78;;;;;;;19.29;49.64;100323.53;7762765;32;38769;-74
2022/07/09 06:27:03;;;;;;;6.62;2.85;;;;;;;19.62;49.95;100328.72;7762990;32;37686;-74
2022/07/09 06:31:19;;;;;;;5.22;2.37;;;;;;;19.60;50.12;100321.87;7762893;32;38877;-75
2022/07/09 06:35:35;;;;;;;6.47;2.87;;;;;;;19.71;50.15;100309.38;7762688;32;40573;-75
2022/07/09 06:39:55;;;;;;;7.32;2.70;;;;;;;19.95;48.30;100310.94;7762533;32;37625;-75
2022/07/09 06:44:11;;;;;;;7.05;3.15;;;;;;;19.87;49.40;100310.59;7762555;32;37571;-75
2022/07/09 06:48:27;;;;;;;8.52;2.92;;;;;;;19.95;49.14;100310.94;7765529;32;39694;-74
2022/07/09 06:52:43;;;;;;;6.15;2.70;;;;;;;20.43;47.68;100299.75;7766469;32;39564;-75
2022/07/09 06:56:59;;;;;;;7.57;2.95;;;;;;;19.73;48.40;100303.53;7766307;32;37616;-74
2022/07/09 07:01:21;;;;;;;6.80;2.50;;;;;;;20.30;48.51;100299.91;7766408;32;37720;-75
2022/07/09 07:05:37;;;;;;;10.13;2.67;;;;;;;20.81;45.73;100287.22;7766264;32;39011;-75
2022/07/09 07:09:53;;;;;;;5.40;2.50;;;;;;;20.67;45.17;100286.59;7766164;32;40538;-74
2022/07/09 07:14:09;;;;;;;5.70;2.70;;;;;;;21.11;45.20;100274.28;7766139;32;37769;-74
2022/07/09 07:18:25;;;;;;;4.25;2.35;;;;;;;21.30;44.06;100282.19;7766174;32;37458;-76
2022/07/09 07:22:41;;;;;;;4.53;2.15;;;;;;;21.44;44.81;100275.59;7765821;32;40036;-75
2022/07/09 07:26:58;;;;;;;6.50;2.50;;;;;;;21.52;43.73;100283.09;7765977;32;40763;-75
2022/07/09 07:31:15;;;;;;;3.50;2.40;;;;;;;21.73;41.92;100278.44;7765933;32;37923;-75
2022/07/09 07:35:31;;;;;;;6.75;2.55;;;;;;;21.27;43.65;100277.31;7765988;32;37534;-74
2022/07/09 07:39:47;;;;;;;4.10;2.12;;;;;;;21.76;43.96;100274.16;7765954;32;39427;-75
2022/07/09 07:44:03;;;;;;;4.05;2.33;;;;;;;21.72;43.99;100265.69;7765783;32;40092;-75
2022/07/09 07:48:20;;;;;;;4.75;2.33;;;;;;;22.18;42.62;100273.38;7765682;32;38856;-76
2022/07/09 07:52:36;;;;;;;3.97;2.15;;;;;;;22.78;40.63;100272.06;7765725;32;36965;-76
2022/07/09 07:56:52;;;;;;;4.40;2.20;;;;;;;23.08;39.89;100255.25;7765358;32;39361;-73
2022/07/09 08:01:08;;;;;;;5.30;2.17;;;;;;;22.78;40.85;100260.13;7765556;32;39953;-74
2022/07/09 08:05:25;;;;;;;5.87;2.25;;;;;;;23.13;39.34;100252.25;7765422;32;38702;-75
2022/07/09 08:09:41;;;;;;;4.43;2.10;;;;;;;23.50;39.49;100251.47;7765561;32;36820;-76
2022/07/09 08:13:57;;;;;;;4.10;1.87;;;;;;;23.86;37.96;100250.66;7765468;32;39214;-76
2022/07/09 08:18:14;;;;;;;5.20;2.05;;;;;;;24.31;36.72;100240.44;7765704;32;39910;-74
2022/07/09 08:22:31;;;;;;;3.95;2.20;;;;;;;24.11;37.54;100248.62;7765436;32;38065;-75
2022/07/09 08:26:47;;;;;;;3.03;1.73;;;;;;;24.27;36.08;100247.88;7765250;32;37085;-74
2022/07/09 08:31:03;;;;;;;6.30;2.28;;;;;;;24.72;36.51;100247.59;7765306;32;39806;-74
2022/07/09 08:35:20;;;;;;;4.00;2.00;;;;;;;24.82;34.90;100237.91;7765006;32;40671;-75
2022/07/09 08:39:36;;;;;;;8.00;2.42;;;;;;;24.17;35.72;100238.03;7765104;32;37948;-74
2022/07/09 08:43:53;;;;;;;7.28;1.83;;;;;;;24.04;35.51;100236.44;7765333;32;36899;-73
2022/07/09 08:48:09;;;;;;;5.93;1.90;;;;;;;24.36;36.26;100226.25;7764914;32;39927;-74
2022/07/09 08:52:26;;;;;;;6.60;2.20;;;;;;;24.60;35.46;100225.34;7764907;32;39669;-74
2022/07/09 08:56:42;;;;;;;6.93;2.10;;;;;;;24.70;35.30;100222.06;7764791;32;38751;-74
2022/07/09 09:00:58;;;;;;;4.65;2.03;;;;;;;25.18;34.19;100226.84;7763536;32;36877;-74
2022/07/09 09:05:15;;;;;;;3.85;1.62;;;;;;;24.63;33.61;100221.03;7764439;32;39298;-75
2022/07/09 09:09:36;;;;;;;3.45;1.70;;;;;;;25.19;34.69;100226.50;7763527;32;39579;-74
2022/07/09 09:13:53;;;;;;;3.08;1.80;;;;;;;25.60;32.41;100221.53;7764623;32;38113;-74
2022/07/09 09:18:10;;;;;;;5.25;2.08;;;;;;;26.07;31.77;100217.00;7764395;32;37223;-74
2022/07/09 09:22:26;;;;;;;5.30;1.77;;;;;;;26.69;30.97;100207.88;7764274;32;39939;-74
2022/07/09 09:26:42;;;;;;;4.62;1.90;;;;;;;26.49;30.83;100216.28;7764216;32;39868;-74
2022/07/09 09:30:58;;;;;;;5.78;2.12;;;;;;;24.95;32.01;100213.53;7764174;32;37947;-74
2022/07/09 09:35:14;;;;;;;3.00;1.83;;;;;;;25.12;30.81;100199.22;7762901;32;36913;-74
2022/07/09 09:39:30;;;;;;;5.05;1.80;;;;;;;25.62;31.12;100193.25;7764031;32;39883;-74
2022/07/09 09:43:47;;;;;;;5.28;1.75;;;;;;;25.77;30.30;100197.97;7763834;32;40731;-75
2022/07/09 09:48:05;;;;;;;4.28;1.70;;;;;;;25.23;32.01;100201.47;7762502;32;37703;-74
2022/07/09 09:52:21;;;;;;;4.30;1.83;;;;;;;25.75;30.19;100191.97;7763811;32;37057;-74
2022/07/09 09:56:38;;;;;;;4.90;1.80;;;;;;;25.95;29.44;100180.84;7763685;32;39046;-75
2022/07/09 10:00:54;;;;;;;4.87;1.80;;;;;;;25.82;30.70;100180.94;7763497;32;40823;-74
2022/07/09 10:05:11;;;;;;;3.90;1.73;;;;;;;26.16;28.95;100172.06;7763306;32;37914;-75
2022/07/09 10:09:27;;;;;;;4.82;1.70;;;;;;;26.13;29.22;100173.63;7763444;32;36964;-74
2022/07/09 10:13:53;;;;;;;8.18;1.67;;;;;;;26.08;30.06;100167.50;7763270;32;39992;-74
2022/07/09 10:18:11;;;;;;;5.05;1.50;;;;;;;26.38;29.17;100170.50;7763217;32;40840;-75
2022/07/09 10:22:37;;;;;;;5.45;1.80;;;;;;;27.10;26.73;100149.44;7765666;32;38513;-74
2022/07/09 10:27:06;;;;;;;4.87;1.60;;;;;;;27.00;27.31;100161.25;7766807;32;36770;-74
2022/07/09 10:31:23;;;;;;;3.97;1.55;;;;;;;26.54;27.00;100146.03;7765865;32;39296;-75
2022/07/09 10:35:49;;;;;;;5.05;1.30;;;;;;;26.84;26.36;100152.97;7766667;32;40856;-74
2022/07/09 10:40:10;;;;;;;3.58;1.45;;;;;;;27.17;25.62;100136.34;7766670;32;37968;-74
2022/07/09 10:44:27;;;;;;;2.45;1.40;;;;;;;27.39;25.52;100136.72;7766590;32;36840;-74
2022/07/09 10:48:47;;;;;;;2.45;1.50;;;;;;;27.90;25.08;100135.37;7766526;32;39334;-75
2022/07/09 10:53:03;;;;;;;5.55;1.27;;;;;;;28.44;24.59;100125.59;7766442;32;39647;-75
2022/07/09 10:57:19;;;;;;;6.95;1.30;;;;;;;28.43;23.26;100125.97;7766402;32;37690;-74
2022/07/09 11:01:35;;;;;;;4.82;1.33;;;;;;;28.23;23.70;100125.37;7766340;32;36950;-74
2022/07/09 11:05:52;;;;;;;3.28;1.40;;;;;;;28.18;23.75;100122.91;7766593;32;37477;-74
2022/07/09 11:10:18;;;;;;;3.50;1.33;;;;;;;28.61;24.29;100121.38;7766141;32;39983;-74
2022/07/09 11:14:42;;;;;;;3.53;1.42;;;;;;;28.26;23.11;100119.00;7766164;32;38033;-75
2022/07/09 11:18:58;;;;;;;5.93;1.30;;;;;;;27.90;23.72;100108.16;7765212;32;37000;-74
2022/07/09 11:23:15;;;;;;;2.45;1.08;;;;;;;27.80;24.47;100092.03;7765923;32;39297;-74
2022/07/09 11:27:32;;;;;;;3.87;1.40;;;;;;;28.12;23.68;100102.84;7764692;32;40769;-75
2022/07/09 11:31:50;;;;;;;3.00;1.23;;;;;;;28.55;23.19;100091.28;7761175;32;37906;-75
2022/07/09 11:36:07;;;;;;;3.50;1.20;;;;;;;29.29;21.80;100083.84;7754556;32;37683;-76
2022/07/09 11:40:24;;;;;;;2.12;1.30;;;;;;;29.12;23.17;100082.50;7738754;32;40043;-76
2022/07/09 11:44:40;;;;;;;5.10;1.33;;;;;;;28.87;24.13;100085.13;7741382;32;40127;-76
2022/07/09 11:48:56;;;;;;;3.22;1.20;;;;;;;29.06;23.61;100070.81;7765400;32;38910;-75
2022/07/09 11:53:25;;;;;;;3.83;1.23;;;;;;;28.73;24.38;100061.34;7754146;32;36988;-74
2022/07/09 11:57:52;;;;;;;3.15;1.45;;;;;;;29.03;24.32;100066.00;7765665;32;39970;-74
2022/07/09 12:02:23;;;;;;;;;;;;;;;28.81;23.97;100059.44;7765941;32;39673;-75
2022/07/09 12:06:50;;;;;;;2.78;1.10;;;;;;;28.99;24.04;100043.53;7735749;32;38774;-74
2022/07/09 12:11:07;;;;;;;2.22;1.25;;;;;;;28.73;24.42;100047.34;7739746;32;36497;-74
2022/07/09 12:15:23;;;;;;;4.50;1.00;;;;;;;29.44;24.12;100040.56;7764326;32;40225;-74
2022/07/09 12:19:39;;;;;;;1.40;0.85;;;;;;;29.20;23.30;100042.03;7764586;32;40030;-74
2022/07/09 12:23:56;;;;;;;1.50;0.93;;;;;;;28.79;23.37;100040.19;7765456;32;38086;-74
2022/07/09 12:28:12;;;;;;;3.70;1.25;;;;;;;28.69;23.37;100034.50;7765181;32;37814;-75
2022/07/09 12:32:28;;;;;;;1.30;1.00;;;;;;;28.88;23.92;100022.22;7765308;32;40152;-75
2022/07/09 12:36:44;;;;;;;1.10;0.90;;;;;;;29.44;24.24;100020.91;7765242;32;40737;-74
2022/07/09 12:41:14;;;;;;;0.98;0.90;;;;;;;28.72;23.97;100012.09;7747662;32;38921;-75
2022/07/09 12:45:30;;;;;;;2.72;1.27;;;;;;;29.10;23.28;100014.72;7738133;32;36875;-74
2022/07/09 12:49:46;;;;;;;4.37;1.27;;;;;;;29.25;23.28;100001.56;7737911;32;39267;-76
2022/07/09 12:54:02;;;;;;;2.50;1.20;;;;;;;29.89;22.49;99993.41;7737837;32;40779;-75
2022/07/09 12:58:19;;;;;;;6.70;0.98;;;;;;;29.84;21.79;99988.16;7737852;32;38762;-78
2022/07/09 13:02:35;;;;;;;2.05;0.80;;;;;;;30.37;21.14;99988.63;7738028;32;37277;-79
2022/07/09 13:06:51;;;;;;;0.85;0.68;;;;;;;30.91;20.04;99983.75;7737639;32;39307;-78
2022/07/09 13:11:07;;;;;;;4.45;0.88;;;;;;;30.97;19.77;99976.50;7752829;32;40812;-78
2022/07/09 13:15:23;;;;;;;1.85;0.70;;;;;;;31.02;19.88;99978.91;7762572;32;37585;-79
2022/07/09 13:19:40;;;;;;;3.30;0.60;;;;;;;30.65;19.84;99977.38;7756396;32;256004;-78
2022/07/09 13:23:56;;;;;;;3.45;1.17;;;;;;;30.85;20.08;99974.09;7763270;32;40132;-78
2022/07/09 13:28:13;;;;;;;3.50;0.95;;;;;;;31.01;19.71;99954.78;7763280;32;40884;-78
2022/07/09 13:32:29;;;;;;;1.17;0.60;;;;;;;31.12;19.71;99963.19;7764122;32;37950;-78
2022/07/09 13:36:45;;;;;;;3.40;0.75;;;;;;;31.23;18.70;99966.75;7763625;32;37123;-79
2022/07/09 13:41:01;;;;;;;1.92;0.77;;;;;;;31.12;18.46;99953.94;7737085;32;39950;-78
2022/07/09 13:45:18;;;;;;;4.37;0.43;;;;;;;29.25;20.63;99956.66;7737010;32;40006;-78
2022/07/09 13:49:34;;;;;;;1.02;0.50;;;;;;;30.03;20.36;99967.31;7736618;32;38727;-79
2022/07/09 13:53:50;;;;;;;0.68;0.50;;;;;;;30.61;19.77;99954.03;7743108;32;37259;-79
2022/07/09 13:58:07;;;;;;;3.35;0.80;;;;;;;30.68;19.39;99939.97;7766839;32;39253;-78
2022/07/09 14:02:23;;;;;;;1.73;0.80;;;;;;;30.41;19.30;99938.81;7767013;32;40105;-79
2022/07/09 14:06:39;;;;;;;0.95;0.65;;;;;;;31.07;18.86;99941.88;7766851;32;39165;-79
2022/07/09 14:11:01;;;;;;;2.55;0.90;;;;;;;31.49;18.89;99930.00;7741572;32;37129;-78
2022/07/09 14:15:18;;;;;;;2.53;0.80;;;;;;;30.99;18.84;99925.44;7739929;32;39851;-78
2022/07/09 14:19:35;;;;;;;1.23;0.70;;;;;;;31.18;18.73;99922.13;7739915;32;39673;-78
2022/07/09 14:23:51;;;;;;;1.60;0.77;;;;;;;31.32;18.80;99914.81;7739630;32;37838;-78
2022/07/09 14:28:08;;;;;;;1.45;0.80;;;;;;;31.36;17.79;99918.44;7753612;32;35559;-79
2022/07/09 14:32:24;;;;;;;1.35;0.88;;;;;;;31.67;17.74;99911.03;7739568;32;39344;-78
2022/07/09 14:36:40;;;;;;;0.70;0.57;;;;;;;31.37;17.65;99898.28;7758366;32;40816;-78
2022/07/09 14:40:56;;;;;;;3.12;1.12;;;;;;;31.76;17.48;99911.34;7766651;32;38943;-77
2022/07/09 14:45:12;;;;;;;0.93;0.70;;;;;;;31.53;17.13;99905.47;7765079;32;37677;-79
2022/07/09 14:49:29;;;;;;;4.05;1.05;;;;;;;31.48;18.00;99897.41;7762134;32;39226;-78
2022/07/09 14:53:45;;;;;;;5.35;1.20;;;;;;;31.58;17.41;99897.41;7745520;32;39594;-78
2022/07/09 14:58:02;;;;;;;1.73;1.08;;;;;;;31.41;17.34;99895.47;7751260;32;37686;-79
2022/07/09 15:02:19;;;;;;;2.70;1.10;;;;;;;30.82;17.41;99908.19;7765156;32;36757;-79
2022/07/09 15:06:35;;;;;;;2.60;1.00;;;;;;;30.97;17.95;99892.06;7738437;32;39016;-78
2022/07/09 15:10:51;;;;;;;2.65;0.93;;;;;;;31.85;17.33;99893.19;7739221;32;39655;-77
2022/07/09 15:15:08;;;;;;;1.55;0.80;;;;;;;31.70;17.14;99892.47;7743667;32;37776;-78
2022/07/09 15:19:24;;;;;;;1.58;0.90;;;;;;;31.44;17.14;99897.44;7764856;32;37391;-78
2022/07/09 15:23:40;;;;;;;4.60;0.93;;;;;;;31.76;17.34;99885.97;7765972;32;39344;-78
2022/07/09 15:27:58;;;;;;;2.25;0.90;;;;;;;31.02;17.48;99877.56;7765825;32;39950;-78
2022/07/09 15:32:15;;;;;;;1.77;1.05;;;;;;;30.84;16.80;99876.84;7765838;32;38686;-78
2022/07/09 15:36:32;;;;;;;2.40;0.65;;;;;;;31.02;16.85;99877.56;7751186;32;37237;-79
2022/07/09 15:40:49;;;;;;;1.37;0.90;;;;;;;30.85;16.71;99881.22;7751971;32;40140;-79
2022/07/09 15:45:06;;;;;;;5.97;1.27;;;;;;;30.15;17.55;99881.78;7738762;32;40810;-78
2022/07/09 15:49:22;;;;;;;2.15;1.12;;;;;;;30.43;17.02;99869.72;7738624;32;38621;-79
2022/07/09 15:53:38;;;;;;;2.10;1.10;;;;;;;30.15;17.46;99870.56;7752338;32;37016;-78
2022/07/09 15:57:55;;;;;;;1.95;0.90;;;;;;;30.15;17.37;99878.97;7765696;32;39461;-78
2022/07/09 16:02:11;;;;;;;3.55;1.33;;;;;;;30.57;17.56;99877.31;7752928;32;41040;-80
2022/07/09 16:06:27;;;;;;;0.80;0.80;;;;;;;30.47;17.19;99864.06;7758509;32;37585;-78
2022/07/09 16:10:43;;;;;;;2.40;1.20;;;;;;;30.55;17.62;99876.91;7738510;32;36765;-78
2022/07/09 16:14:59;;;;;;;1.50;0.80;;;;;;;30.70;17.02;99860.78;7738421;32;39327;-79
2022/07/09 16:19:15;;;;;;;2.40;1.20;;;;;;;30.61;16.78;99864.03;7748901;32;39904;-80
2022/07/09 16:23:32;;;;;;;4.35;1.20;;;;;;;29.88;17.55;99873.75;7765090;32;38597;-79
2022/07/09 16:27:48;;;;;;;3.20;1.20;;;;;;;29.58;18.66;99860.09;7765149;32;37121;-79
2022/07/09 16:32:04;;;;;;;1.92;0.98;;;;;;;30.04;17.48;99867.72;7765314;32;39380;-79
2022/07/09 16:36:20;;;;;;;2.85;1.10;;;;;;;29.65;17.43;99862.06;7765058;32;40792;-78
2022/07/09 16:40:38;;;;;;;2.90;1.10;;;;;;;29.68;17.96;99864.09;7741143;32;38619;-78
2022/07/09 16:44:55;;;;;;;4.70;1.05;;;;;;;29.71;18.00;99861.28;7740995;32;37977;-77
2022/07/09 16:49:12;;;;;;;1.08;0.95;;;;;;;29.99;17.76;99865.31;7760928;32;39093;-77
2022/07/09 16:53:29;;;;;;;0.95;0.80;;;;;;;30.01;16.79;99859.31;7749675;32;40998;-78
2022/07/09 16:57:46;;;;;;;1.15;0.70;;;;;;;30.06;16.44;99856.09;7750221;32;38650;-78
2022/07/09 17:02:03;;;;;;;2.00;1.00;;;;;;;29.82;16.89;99847.28;7737912;32;37011;-77
2022/07/09 17:06:19;;;;;;;1.15;1.00;;;;;;;29.10;16.61;99847.13;7737833;32;40637;-78
2022/07/09 17:10:36;;;;;;;4.43;1.20;;;;;;;29.22;16.78;99848.81;7763881;32;39596;-78
2022/07/09 17:14:52;;;;;;;1.08;1.00;;;;;;;29.33;16.55;99849.59;7751940;32;37911;-77
2022/07/09 17:19:08;;;;;;;1.50;0.90;;;;;;;28.80;17.08;99850.22;7737698;32;36689;-77
2022/07/09 17:23:24;;;;;;;1.52;1.12;;;;;;;28.66;17.47;99839.75;7755094;32;39333;-77
2022/07/09 17:27:41;;;;;;;1.05;0.90;;;;;;;28.46;17.99;99842.03;7764383;32;39973;-78
2022/07/09 17:31:57;;;;;;;3.45;1.00;;;;;;;28.09;18.50;99843.78;7757940;32;38679;-85
2022/07/09 17:36:13;;;;;;;1.92;1.02;;;;;;;28.07;18.54;99840.59;7742203;32;38268;-76
2022/07/09 17:40:29;;;;;;;4.35;0.90;;;;;;;27.94;18.86;99842.13;7744061;32;39232;-76
2022/07/09 17:44:46;;;;;;;2.35;1.17;;;;;;;27.80;18.98;99837.12;7761080;32;39947;-77
2022/07/09 17:49:02;;;;;;;2.15;0.80;;;;;;;27.48;20.62;99839.69;7763717;32;37966;-76
2022/07/09 17:53:18;;;;;;;1.48;0.80;;;;;;;27.29;19.70;99844.28;7762105;32;37142;-76
2022/07/09 17:57:34;;;;;;;1.40;0.90;;;;;;;27.03;20.01;99834.00;7763937;32;39333;-76
2022/07/09 18:01:50;;;;;;;2.92;1.23;;;;;;;27.26;20.53;99833.84;7758102;32;40024;-75
2022/07/09 18:06:06;;;;;;;1.83;0.98;;;;;;;27.22;20.53;99840.59;7742599;32;38041;-76
2022/07/09 18:10:25;;;;;;;1.75;1.12;;;;;;;27.15;20.41;99839.31;7763251;32;37170;-74
2022/07/09 18:14:41;;;;;;;1.08;0.98;;;;;;;26.76;20.88;99834.06;7739861;32;40039;-79
2022/07/09 18:18:57;;;;;;;4.78;0.88;;;;;;;26.78;21.27;99842.88;7735972;32;41525;-75
2022/07/09 18:23:14;;;;;;;1.90;1.30;;;;;;;26.61;21.99;99833.06;7746090;32;38053;-79
2022/07/09 18:27:31;;;;;;;3.33;1.10;;;;;;;26.52;22.52;99837.34;7735923;32;37802;-75
2022/07/09 18:31:48;;;;;;;7.93;2.92;;;;;;;26.27;22.99;99846.19;7739528;32;39058;-77
2022/07/09 18:36:05;;;;;;;7.90;3.83;;;;;;;26.16;23.09;99834.81;7735727;32;39949;-77
2022/07/09 18:40:21;;;;;;;5.20;1.73;;;;;;;25.96;23.24;99844.53;7735556;32;38940;-77
2022/07/09 18:44:38;;;;;;;3.75;1.70;;;;;;;25.83;23.45;99853.03;7762521;32;37131;-77
2022/07/09 18:48:55;;;;;;;2.80;1.48;;;;;;;25.61;24.08;99853.84;7766201;32;39381;-77
2022/07/09 18:53:11;;;;;;;4.25;1.80;;;;;;;25.29;24.63;99859.69;7754184;32;40770;-77
2022/07/09 18:57:28;;;;;;;3.17;1.30;;;;;;;25.09;24.95;99854.09;7766319;32;37572;-78
2022/07/09 19:01:44;;;;;;;2.85;1.15;;;;;;;25.11;24.95;99859.28;7760149;32;37145;-77
2022/07/09 19:06:00;;;;;;;4.68;1.25;;;;;;;24.96;25.40;99863.78;7739324;32;39318;-75
2022/07/09 19:10:20;;;;;;;3.17;1.23;;;;;;;24.99;25.29;99865.84;7739396;32;40096;-77
2022/07/09 19:14:36;;;;;;;3.92;1.08;;;;;;;24.89;25.49;99863.66;7764914;32;38626;-76
2022/07/09 19:18:53;;;;;;;1.15;0.90;;;;;;;24.63;25.57;99878.22;7753253;32;37760;-77
2022/07/09 19:23:10;;;;;;;1.80;0.90;;;;;;;24.53;25.52;99876.81;7756036;32;40136;-77
2022/07/09 19:27:26;;;;;;;2.42;1.00;;;;;;;24.38;25.89;99882.03;7739041;32;40045;-77
2022/07/09 19:36:16;;;;;;;1.77;1.37;;;;;;;23.94;27.00;99904.47;7764186;32;38032;-76
2022/07/09 19:40:33;;;;;;;3.10;1.17;;;;;;;23.88;27.52;99899.53;7765610;32;39452;-76
2022/07/09 19:44:49;;;;;;;2.97;1.80;;;;;;;23.88;27.58;99911.47;7764783;32;40874;-75
2022/07/09 19:49:06;;;;;;;4.55;1.27;;;;;;;23.75;27.64;99907.09;7765609;32;38722;-75
2022/07/09 19:53:22;;;;;;;2.10;1.20;;;;;;;23.60;27.84;99901.19;7756774;32;37054;-75
2022/07/09 19:57:38;;;;;;;3.28;1.17;;;;;;;23.56;27.91;99897.50;7742813;32;39470;-75
2022/07/09 20:01:58;;;;;;;4.80;1.30;;;;;;;23.48;27.86;99901.25;7765641;32;39923;-75
2022/07/09 20:06:23;;;;;;;0.98;0.90;;;;;;;23.40;28.31;99902.22;7765654;32;38157;-75